createdAt,value
2019-04-28T00:00:42.919Z,4.30
2019-04-28T00:03:11.736Z,3.97
2019-04-28T00:05:41.569Z,3.37
2019-04-28T00:08:10.897Z,4.40
2019-04-28T00:10:39.527Z,4.33
2019-04-28T00:13:08.411Z,4.77
2019-04-28T00:15:37.236Z,4.63
2019-04-28T00:18:07.039Z,4.40
2019-04-28T00:20:44.982Z,4.90
2019-04-28T00:23:17.982Z,4.30
2019-04-28T00:25:51.470Z,4.20
2019-04-28T00:28:21.249Z,4.23
2019-04-28T00:30:51.622Z,4.13
2019-04-28T00:33:18.661Z,3.57
2019-04-28T00:35:47.479Z,3.47
2019-04-28T00:38:16.294Z,3.80
2019-04-28T00:40:45.190Z,4.03
2019-04-28T00:43:13.983Z,3.00
2019-04-28T00:45:43.332Z,3.30
2019-04-28T00:48:12.184Z,3.23
2019-04-28T00:50:41.400Z,3.20
2019-04-28T00:53:11.600Z,3.40
2019-04-28T00:55:38.605Z,3.37
2019-04-28T00:58:07.428Z,3.00
2019-04-28T01:00:36.244Z,3.17
2019-04-28T01:03:05.535Z,3.73
2019-04-28T01:05:34.348Z,3.27
2019-04-28T01:08:03.175Z,2.83
2019-04-28T01:10:32.026Z,2.53
2019-04-28T01:13:02.106Z,1.87
2019-04-28T01:15:39.640Z,2.73
2019-04-28T01:18:15.812Z,2.50
2019-04-28T01:20:45.854Z,2.70
2019-04-28T01:23:16.114Z,2.10
2019-04-28T01:25:44.966Z,2.43
2019-04-28T01:28:13.743Z,2.50
2019-04-28T01:31:46.538Z,2.47
2019-04-28T01:34:20.405Z,3.13
2019-04-28T01:36:49.585Z,2.30
2019-04-28T01:39:19.960Z,2.80
2019-04-28T01:41:46.783Z,3.23
2019-04-28T01:44:15.639Z,3.37
2019-04-28T01:46:45.144Z,2.97
2019-04-28T01:49:13.980Z,2.93
2019-04-28T01:51:44.420Z,2.77
2019-04-28T01:54:13.307Z,3.20
2019-04-28T01:56:42.123Z,2.63
2019-04-28T01:59:10.931Z,3.27
2019-04-28T02:01:40.027Z,2.40
2019-04-28T02:04:10.117Z,2.00
2019-04-28T02:06:37.427Z,3.13
2019-04-28T02:09:07.020Z,2.23
2019-04-28T02:11:35.825Z,3.63
2019-04-28T02:14:04.695Z,2.33
2019-04-28T02:16:33.530Z,3.10
2019-04-28T02:19:02.404Z,3.13
2019-04-28T02:21:42.412Z,3.83
2019-04-28T02:24:16.635Z,2.93
2019-04-28T02:26:45.424Z,3.13
2019-04-28T02:29:14.233Z,2.77
2019-04-28T02:31:43.144Z,2.53
2019-04-28T02:34:12.024Z,2.50
2019-04-28T02:36:40.935Z,2.43
2019-04-28T02:39:10.676Z,2.63
2019-04-28T02:41:40.965Z,2.23
2019-04-28T02:44:10.230Z,2.30
2019-04-28T02:46:36.711Z,2.10
2019-04-28T02:49:05.513Z,2.20
2019-04-28T02:51:40.747Z,1.90
2019-04-28T02:54:07.337Z,2.60
2019-04-28T02:56:36.164Z,2.30
2019-04-28T02:59:06.279Z,2.40
2019-04-28T03:01:35.054Z,1.90
2019-04-28T03:04:04.044Z,1.70
2019-04-28T03:06:32.956Z,1.93
2019-04-28T03:09:01.757Z,1.83
2019-04-28T03:11:31.447Z,2.10
2019-04-28T03:14:00.944Z,1.70
2019-04-28T03:16:30.401Z,2.10
2019-04-28T03:19:01.011Z,1.70
2019-04-28T03:21:31.239Z,1.70
2019-04-28T03:23:57.813Z,1.80
2019-04-28T03:27:03.598Z,1.60
2019-04-28T03:29:40.436Z,2.13
2019-04-28T03:32:31.150Z,1.90
2019-04-28T03:34:46.180Z,2.10
2019-04-28T03:37:14.957Z,2.10
2019-04-28T03:39:43.746Z,1.93
2019-04-28T03:42:12.596Z,1.80
2019-04-28T03:44:41.724Z,1.87
2019-04-28T03:47:10.725Z,2.50
2019-04-28T03:49:42.807Z,2.00
2019-04-28T03:52:10.716Z,2.27
2019-04-28T03:54:41.041Z,1.70
2019-04-28T03:57:08.040Z,2.83
2019-04-28T03:59:37.656Z,3.40
2019-04-28T04:02:06.534Z,3.30
2019-04-28T04:04:36.310Z,3.47
2019-04-28T04:07:05.112Z,3.10
2019-04-28T04:09:41.362Z,3.97
2019-04-28T04:12:21.127Z,3.90
2019-04-28T04:14:50.841Z,4.20
2019-04-28T04:17:26.804Z,4.10
2019-04-28T04:19:55.599Z,4.37
2019-04-28T04:22:24.427Z,4.40
2019-04-28T04:24:53.357Z,4.07
2019-04-28T04:27:22.197Z,5.13
2019-04-28T04:29:51.887Z,4.27
2019-04-28T04:32:26.642Z,4.20
2019-04-28T04:34:50.686Z,3.57
2019-04-28T04:37:20.510Z,4.43
2019-04-28T04:39:48.421Z,4.27
2019-04-28T04:42:17.250Z,3.90
2019-04-28T04:44:47.364Z,5.27
2019-04-28T04:47:16.137Z,4.33
2019-04-28T04:49:44.935Z,4.50
2019-04-28T04:52:14.264Z,4.33
2019-04-28T04:54:43.139Z,3.40
2019-04-28T04:57:11.957Z,4.20
2019-04-28T04:59:41.376Z,4.20
2019-04-28T05:02:29.385Z,2.93
2019-04-28T05:04:53.738Z,4.43
2019-04-28T05:07:22.528Z,4.33
2019-04-28T05:09:51.526Z,4.53
2019-04-28T05:12:21.859Z,4.07
2019-04-28T05:14:51.149Z,4.03
2019-04-28T05:17:21.302Z,4.30
2019-04-28T05:19:50.110Z,4.17
2019-04-28T05:22:21.318Z,4.20
2019-04-28T05:24:54.596Z,3.57
2019-04-28T05:27:25.585Z,3.67
2019-04-28T05:29:52.112Z,5.00
2019-04-28T05:32:21.022Z,4.10
2019-04-28T05:34:52.657Z,3.97
2019-04-28T05:37:19.474Z,3.87
2019-04-28T05:39:49.682Z,4.27
2019-04-28T05:42:17.187Z,4.00
2019-04-28T05:44:46.025Z,4.23
2019-04-28T05:47:14.842Z,3.00
2019-04-28T05:49:49.801Z,4.30
2019-04-28T05:52:22.183Z,3.63
2019-04-28T05:54:54.341Z,3.90
2019-04-28T05:57:30.561Z,3.33
2019-04-28T06:00:04.291Z,3.10
2019-04-28T06:02:36.147Z,3.30
2019-04-28T06:05:05.373Z,3.33
2019-04-28T06:07:40.570Z,3.33
2019-04-28T06:10:10.165Z,3.60
2019-04-28T06:12:37.927Z,3.93
2019-04-28T06:15:07.365Z,3.73
2019-04-28T06:17:36.385Z,3.30
2019-04-28T06:20:05.368Z,3.40
2019-04-28T06:22:34.197Z,3.60
2019-04-28T06:25:03.078Z,3.33
2019-04-28T06:27:32.721Z,3.77
2019-04-28T06:30:02.409Z,3.13
2019-04-28T06:32:32.843Z,3.10
2019-04-28T06:35:03.359Z,3.50
2019-04-28T06:37:32.226Z,3.00
2019-04-28T06:40:01.029Z,3.40
2019-04-28T06:42:32.031Z,2.80
2019-04-28T06:45:00.866Z,3.00
2019-04-28T06:47:30.311Z,3.87
2019-04-28T06:50:00.019Z,2.90
2019-04-28T06:52:28.926Z,3.97
2019-04-28T06:54:57.908Z,3.93
2019-04-28T06:57:26.718Z,3.33
2019-04-28T06:59:56.242Z,4.10
2019-04-28T07:02:25.039Z,4.13
2019-04-28T07:05:01.653Z,3.77
2019-04-28T07:07:22.747Z,3.40
2019-04-28T07:09:51.561Z,4.47
2019-04-28T07:12:21.084Z,4.23
2019-04-28T07:14:50.790Z,4.60
2019-04-28T07:17:20.428Z,4.77
2019-04-28T07:19:53.508Z,4.70
2019-04-28T07:22:25.685Z,5.40
2019-04-28T07:24:56.230Z,6.20
2019-04-28T07:27:25.597Z,5.27
2019-04-28T07:29:54.379Z,11.97
2019-04-28T07:32:24.140Z,5.50
2019-04-28T07:34:53.657Z,5.17
2019-04-28T07:37:23.199Z,4.63
2019-04-28T07:39:51.987Z,4.13
2019-04-28T07:42:23.429Z,4.77
2019-04-28T07:44:52.254Z,4.53
2019-04-28T07:47:21.088Z,4.00
2019-04-28T07:49:50.123Z,3.90
2019-04-28T07:52:26.126Z,4.37
2019-04-28T07:54:55.007Z,4.20
2019-04-28T07:57:24.175Z,6.37
2019-04-28T07:59:52.642Z,4.60
2019-04-28T08:02:21.415Z,5.67
2019-04-28T08:04:50.331Z,4.60
2019-04-28T08:07:20.854Z,4.67
2019-04-28T08:09:49.722Z,4.00
2019-04-28T08:12:18.594Z,4.50
2019-04-28T08:14:47.456Z,4.20
2019-04-28T08:17:16.778Z,4.20
2019-04-28T08:19:45.593Z,4.20
2019-04-28T08:22:14.371Z,3.90
2019-04-28T08:24:43.277Z,4.83
2019-04-28T08:27:12.149Z,4.17
2019-04-28T08:29:40.993Z,5.00
2019-04-28T08:32:16.772Z,4.07
2019-04-28T08:34:45.552Z,4.33
2019-04-28T08:37:17.766Z,4.60
2019-04-28T08:39:46.619Z,4.53
2019-04-28T08:42:15.428Z,4.57
2019-04-28T08:44:44.230Z,4.63
2019-04-28T08:47:13.080Z,4.07
2019-04-28T08:49:41.899Z,4.03
2019-04-28T08:52:11.939Z,3.90
2019-04-28T08:54:40.727Z,3.83
2019-04-28T08:57:09.522Z,3.37
2019-04-28T08:59:38.323Z,3.83
2019-04-28T09:02:07.118Z,4.40
2019-04-28T09:04:35.956Z,3.67
2019-04-28T09:07:04.763Z,3.57
2019-04-28T09:09:33.567Z,3.93
2019-04-28T09:12:02.423Z,3.67
2019-04-28T09:14:31.222Z,3.30
2019-04-28T09:17:00.132Z,4.37
2019-04-28T09:19:30.832Z,4.10
2019-04-28T09:21:59.733Z,4.80
2019-04-28T09:24:28.519Z,4.87
2019-04-28T09:26:57.470Z,4.77
2019-04-28T09:29:26.351Z,6.33
2019-04-28T09:31:55.163Z,5.47
2019-04-28T09:34:28.578Z,5.47
2019-04-28T09:36:52.796Z,5.70
2019-04-28T09:39:25.779Z,5.43
2019-04-28T09:41:59.972Z,5.20
2019-04-28T09:44:28.915Z,5.93
2019-04-28T09:46:59.184Z,5.83
2019-04-28T09:49:28.746Z,5.57
2019-04-28T09:51:58.629Z,6.00
2019-04-28T09:54:28.048Z,5.23
2019-04-28T09:56:57.287Z,5.40
2019-04-28T09:59:26.125Z,5.43
2019-04-28T10:01:55.617Z,6.80
2019-04-28T10:04:24.819Z,5.80
2019-04-28T10:06:54.031Z,5.93
2019-04-28T10:09:23.521Z,5.73
2019-04-28T10:11:52.310Z,5.70
2019-04-28T10:14:22.740Z,5.27
2019-04-28T10:16:51.523Z,5.97
2019-04-28T10:19:20.389Z,6.60
2019-04-28T10:21:49.339Z,5.80
2019-04-28T10:24:18.148Z,5.30
2019-04-28T10:26:46.940Z,6.30
2019-04-28T10:29:17.467Z,5.53
2019-04-28T10:31:46.260Z,5.23
2019-04-28T10:34:15.105Z,5.83
2019-04-28T10:36:43.895Z,5.07
2019-04-28T10:39:18.327Z,5.00
2019-04-28T10:41:48.376Z,6.23
2019-04-28T10:44:17.160Z,5.00
2019-04-28T10:46:46.058Z,5.07
2019-04-28T10:49:14.927Z,4.63
2019-04-28T10:51:43.764Z,5.30
2019-04-28T10:54:18.628Z,4.93
2019-04-28T10:56:47.423Z,4.37
2019-04-28T10:59:17.870Z,3.63
2019-04-28T11:01:45.183Z,3.43
2019-04-28T11:04:19.315Z,3.80
2019-04-28T11:06:48.705Z,3.03
2019-04-28T11:09:30.443Z,3.20
2019-04-28T11:11:50.544Z,3.20
2019-04-28T11:14:19.884Z,2.70
2019-04-28T11:16:48.771Z,2.60
2019-04-28T11:19:17.579Z,2.03
2019-04-28T11:21:46.422Z,3.27
2019-04-28T11:24:16.557Z,2.90
2019-04-28T11:26:45.346Z,1.73
2019-04-28T11:29:14.128Z,2.20
2019-04-28T11:31:43.299Z,1.80
2019-04-28T11:34:16.547Z,1.90
2019-04-28T11:36:49.053Z,1.93
2019-04-28T11:39:21.843Z,1.70
2019-04-28T11:41:50.808Z,1.77
2019-04-28T11:44:20.581Z,2.10
2019-04-28T11:46:50.024Z,1.90
2019-04-28T11:49:18.863Z,1.50
2019-04-28T11:51:48.216Z,2.13
2019-04-28T11:54:16.994Z,2.50
2019-04-28T11:56:45.805Z,1.93
2019-04-28T11:59:15.382Z,1.90
2019-04-28T12:01:44.765Z,1.87
2019-04-28T12:04:14.270Z,1.73
2019-04-28T12:06:43.559Z,1.70
2019-04-28T12:09:23.515Z,1.63
2019-04-28T12:11:53.039Z,1.90
2019-04-28T12:14:26.559Z,1.87
2019-04-28T12:17:02.681Z,1.73
2019-04-28T12:19:36.803Z,1.90
2019-04-28T12:22:05.683Z,1.90
2019-04-28T12:24:35.195Z,1.53
2019-04-28T12:27:04.616Z,1.83
2019-04-28T12:29:33.426Z,1.70
2019-04-28T12:32:02.225Z,2.33
2019-04-28T12:34:31.431Z,1.63
2019-04-28T12:37:07.021Z,1.90
2019-04-28T12:39:36.502Z,1.67
2019-04-28T12:42:06.082Z,2.07
2019-04-28T12:44:34.914Z,1.93
2019-04-28T12:47:04.379Z,2.10
2019-04-28T12:49:41.039Z,2.17
2019-04-28T12:52:10.874Z,2.23
2019-04-28T12:54:39.642Z,2.07
2019-04-28T12:57:08.464Z,2.03
2019-04-28T12:59:41.284Z,3.23
2019-04-28T13:02:17.216Z,6.33
2019-04-28T13:04:49.502Z,3.33
2019-04-28T13:07:18.363Z,2.93
2019-04-28T13:09:47.337Z,2.20
2019-04-28T13:12:16.092Z,2.57
2019-04-28T13:14:44.934Z,1.90
2019-04-28T13:17:13.771Z,2.20
2019-04-28T13:19:42.556Z,2.40
2019-04-28T13:22:12.454Z,2.13
2019-04-28T13:24:41.238Z,2.00
2019-04-28T13:27:10.436Z,1.90
2019-04-28T13:29:38.861Z,2.00
2019-04-28T13:32:07.709Z,2.00
2019-04-28T13:34:37.940Z,2.43
2019-04-28T13:37:06.787Z,2.23
2019-04-28T13:39:40.568Z,2.10
2019-04-28T13:42:09.394Z,2.30
2019-04-28T13:44:43.647Z,2.20
2019-04-28T13:47:13.626Z,2.20
2019-04-28T13:49:49.601Z,2.40
2019-04-28T13:52:18.351Z,2.33
2019-04-28T13:54:47.395Z,2.67
2019-04-28T13:57:16.207Z,1.93
2019-04-28T13:59:45.026Z,2.30
2019-04-28T14:02:18.988Z,2.47
2019-04-28T14:04:51.972Z,2.03
2019-04-28T14:07:20.869Z,2.33
2019-04-28T14:09:49.819Z,2.00
2019-04-28T14:12:18.763Z,1.83
2019-04-28T14:14:47.526Z,1.93
2019-04-28T14:17:16.490Z,2.10
2019-04-28T14:19:45.423Z,2.30
2019-04-28T14:22:15.213Z,2.30
2019-04-28T14:24:44.728Z,2.30
2019-04-28T14:27:13.574Z,2.00
2019-04-28T14:29:42.479Z,1.80
2019-04-28T14:32:13.579Z,2.20
2019-04-28T14:34:45.211Z,2.40
2019-04-28T14:37:14.069Z,2.30
2019-04-28T14:39:42.915Z,2.10
2019-04-28T14:42:11.756Z,2.73
2019-04-28T14:44:40.498Z,2.00
2019-04-28T14:47:09.330Z,2.00
2019-04-28T14:49:38.800Z,2.00
2019-04-28T14:52:07.962Z,2.10
2019-04-28T14:54:36.967Z,2.57
2019-04-28T14:57:05.702Z,2.17
2019-04-28T14:59:34.504Z,2.10
2019-04-28T15:02:16.712Z,2.17
2019-04-28T15:04:55.693Z,2.40
2019-04-28T15:07:29.771Z,2.50
2019-04-28T15:10:06.163Z,2.03
2019-04-28T15:12:35.037Z,2.77
2019-04-28T15:15:03.917Z,3.63
2019-04-28T15:17:32.743Z,2.90
2019-04-28T15:20:01.578Z,3.10
2019-04-28T15:22:30.376Z,2.57
2019-04-28T15:24:59.323Z,3.50
2019-04-28T15:27:28.927Z,3.43
2019-04-28T15:29:58.546Z,3.00
2019-04-28T15:32:28.067Z,2.60
2019-04-28T15:34:58.803Z,3.00
2019-04-28T15:37:27.612Z,2.70
2019-04-28T15:39:57.703Z,2.77
2019-04-28T15:42:26.491Z,3.23
2019-04-28T15:44:56.032Z,3.10
2019-04-28T15:47:24.853Z,3.17
2019-04-28T15:49:53.758Z,3.03
2019-04-28T15:52:23.380Z,3.17
2019-04-28T15:54:52.343Z,3.17
2019-04-28T15:57:21.123Z,3.97
2019-04-28T15:59:50.053Z,3.87
2019-04-28T16:02:18.958Z,3.60
2019-04-28T16:04:47.918Z,2.90
2019-04-28T16:07:24.562Z,3.10
2019-04-28T16:09:46.716Z,2.67
2019-04-28T16:12:15.546Z,2.47
2019-04-28T16:14:44.339Z,3.10
2019-04-28T16:17:13.159Z,2.63
2019-04-28T16:19:43.174Z,2.70
2019-04-28T16:22:11.999Z,3.80
2019-04-28T16:24:40.951Z,3.90
2019-04-28T16:27:09.815Z,3.27
2019-04-28T16:29:38.595Z,2.87
2019-04-28T16:32:09.813Z,2.93
2019-04-28T16:34:36.224Z,3.03
2019-04-28T16:37:05.102Z,2.67
2019-04-28T16:39:33.919Z,2.93
2019-04-28T16:42:11.695Z,2.70
2019-04-28T16:44:54.179Z,2.73
2019-04-28T16:47:31.878Z,3.40
2019-04-28T16:50:00.839Z,3.90
2019-04-28T16:52:29.597Z,3.33
2019-04-28T16:55:04.304Z,3.10
2019-04-28T16:57:41.925Z,3.10
2019-04-28T17:00:17.735Z,3.70
2019-04-28T17:02:50.304Z,4.03
2019-04-28T17:05:19.105Z,3.60
2019-04-28T17:07:52.775Z,3.30
2019-04-28T17:10:17.580Z,3.80
2019-04-28T17:12:47.205Z,3.33
2019-04-28T17:15:15.968Z,3.40
2019-04-28T17:17:44.756Z,4.00
2019-04-28T17:20:13.597Z,4.67
2019-04-28T17:22:42.389Z,3.73
2019-04-28T17:25:11.156Z,3.63
2019-04-28T17:27:39.934Z,3.77
2019-04-28T17:30:08.832Z,4.30
2019-04-28T17:32:37.673Z,3.50
2019-04-28T17:35:09.862Z,3.30
2019-04-28T17:37:38.673Z,2.50
2019-04-28T17:40:07.480Z,2.03
2019-04-28T17:42:36.285Z,2.60
2019-04-28T17:45:06.293Z,2.80
2019-04-28T17:47:35.779Z,3.27
2019-04-28T17:50:06.062Z,3.13
2019-04-28T17:52:35.049Z,2.40
2019-04-28T17:55:08.088Z,2.80
2019-04-28T17:57:36.886Z,2.80
2019-04-28T18:00:11.024Z,3.10
2019-04-28T18:02:53.108Z,2.90
2019-04-28T18:05:28.186Z,2.60
2019-04-28T18:08:00.675Z,2.67
2019-04-28T18:10:29.549Z,3.30
2019-04-28T18:13:01.031Z,4.73
2019-04-28T18:15:34.166Z,4.23
2019-04-28T18:18:06.783Z,5.33
2019-04-28T18:20:35.603Z,4.53
2019-04-28T18:23:04.412Z,5.33
2019-04-28T18:25:34.766Z,5.70
2019-04-28T18:28:04.142Z,5.27
2019-04-28T18:30:34.322Z,6.20
2019-04-28T18:33:10.332Z,7.77
2019-04-28T18:35:43.933Z,6.13
2019-04-28T18:38:16.865Z,6.23
2019-04-28T18:40:50.767Z,6.63
2019-04-28T18:43:25.669Z,5.97
2019-04-28T18:45:54.488Z,5.90
2019-04-28T18:48:23.313Z,6.33
2019-04-28T18:50:52.239Z,6.67
2019-04-28T18:53:24.709Z,6.00
2019-04-28T18:55:53.498Z,6.10
2019-04-28T18:58:26.256Z,5.80
2019-04-28T19:00:59.358Z,5.70
2019-04-28T19:03:28.139Z,6.20
2019-04-28T19:05:57.643Z,6.70
2019-04-28T19:08:49.301Z,5.67
2019-04-28T19:11:26.914Z,5.83
2019-04-28T19:13:59.073Z,5.63
2019-04-28T19:16:34.144Z,6.13
2019-04-28T19:19:04.855Z,6.00
2019-04-28T19:21:34.709Z,6.27
2019-04-28T19:24:03.502Z,5.87
2019-04-28T19:26:33.700Z,5.80
2019-04-28T19:29:02.523Z,5.20
2019-04-28T19:31:31.368Z,6.10
2019-04-28T19:34:00.228Z,5.70
2019-04-28T19:36:29.123Z,5.90
2019-04-28T19:39:03.324Z,5.10
2019-04-28T19:41:26.882Z,6.00
2019-04-28T19:43:55.768Z,6.00
2019-04-28T19:46:24.559Z,6.13
2019-04-28T19:48:53.351Z,7.00
2019-04-28T19:51:31.517Z,6.97
2019-04-28T19:53:51.038Z,7.53
2019-04-28T19:56:24.039Z,7.10
2019-04-28T19:58:58.243Z,6.13
2019-04-28T20:01:29.183Z,6.90
2019-04-28T20:03:57.999Z,7.70
2019-04-28T20:06:26.846Z,7.23
2019-04-28T20:08:55.666Z,7.40
2019-04-28T20:11:24.932Z,7.87
2019-04-28T20:13:53.783Z,8.13
2019-04-28T20:16:22.647Z,7.93
2019-04-28T20:18:51.519Z,7.77
2019-04-28T20:21:20.318Z,7.93
2019-04-28T20:23:49.241Z,7.63
2019-04-28T20:26:18.501Z,8.70
2019-04-28T20:28:47.417Z,8.73
2019-04-28T20:31:17.393Z,22.43
2019-04-28T20:33:48.003Z,9.93
2019-04-28T20:36:20.414Z,8.47
2019-04-28T20:38:49.611Z,7.00
2019-04-28T20:41:23.099Z,9.03
2019-04-28T20:43:52.535Z,8.30
2019-04-28T20:46:21.367Z,7.53
2019-04-28T20:48:50.174Z,8.13
2019-04-28T20:51:19.972Z,8.53
2019-04-28T20:53:48.976Z,9.57
2019-04-28T20:56:17.808Z,8.27
2019-04-28T20:58:46.698Z,11.70
2019-04-28T21:01:15.558Z,9.37
2019-04-28T21:03:44.363Z,8.43
2019-04-28T21:06:13.170Z,9.27
2019-04-28T21:08:42.665Z,9.63
2019-04-28T21:11:11.668Z,9.47
2019-04-28T21:13:40.476Z,9.43
2019-04-28T21:16:09.394Z,9.83
2019-04-28T21:18:38.310Z,9.87
2019-04-28T21:21:27.714Z,9.37
2019-04-28T21:23:56.543Z,10.73
2019-04-28T21:26:25.363Z,11.30
2019-04-28T21:28:54.175Z,9.20
2019-04-28T21:31:23.635Z,10.27
2019-04-28T21:33:52.471Z,10.20
2019-04-28T21:36:21.272Z,9.63
2019-04-28T21:38:51.067Z,10.63
2019-04-28T21:41:19.980Z,10.17
2019-04-28T21:43:53.340Z,9.27
2019-04-28T21:46:27.606Z,10.13
2019-04-28T21:49:01.879Z,11.77
2019-04-28T21:51:30.779Z,10.83
2019-04-28T21:53:59.588Z,11.97
2019-04-28T21:56:28.391Z,11.57
2019-04-28T21:58:57.220Z,11.43
2019-04-28T22:01:26.400Z,11.23
2019-04-28T22:03:55.847Z,12.63
2019-04-28T22:06:24.740Z,12.77
2019-04-28T22:08:53.608Z,12.77
2019-04-28T22:11:22.352Z,12.70
2019-04-28T22:13:52.069Z,12.63
2019-04-28T22:16:20.942Z,12.20
2019-04-28T22:18:49.897Z,11.83
2019-04-28T22:21:18.786Z,12.27
2019-04-28T22:23:54.693Z,12.43
2019-04-28T22:26:28.925Z,13.00
2019-04-28T22:28:58.591Z,11.80
2019-04-28T22:31:27.962Z,12.50
2019-04-28T22:33:57.551Z,13.70
2019-04-28T22:36:26.356Z,14.00
2019-04-28T22:38:55.210Z,13.07
2019-04-28T22:41:24.036Z,12.77
2019-04-28T22:43:53.978Z,12.63
2019-04-28T22:46:22.772Z,13.37
2019-04-28T22:48:51.624Z,13.47
2019-04-28T22:51:20.451Z,13.20
2019-04-28T22:53:49.279Z,13.83
2019-04-28T22:56:23.533Z,13.07
2019-04-28T22:58:57.344Z,13.03
2019-04-28T23:01:30.490Z,11.03
2019-04-28T23:04:04.389Z,11.43
2019-04-28T23:06:33.266Z,12.73
2019-04-28T23:09:02.177Z,11.93
2019-04-28T23:11:30.994Z,11.77
2019-04-28T23:13:59.788Z,12.93
2019-04-28T23:16:28.596Z,11.57
2019-04-28T23:18:58.702Z,10.97
2019-04-28T23:21:35.720Z,10.73
2019-04-28T23:24:05.404Z,12.30
2019-04-28T23:26:34.195Z,11.63
2019-04-28T23:29:02.982Z,11.63
2019-04-28T23:31:32.580Z,11.77
2019-04-28T23:34:03.033Z,10.00
2019-04-28T23:36:31.844Z,11.73
2019-04-28T23:39:00.620Z,12.33
2019-04-28T23:41:39.517Z,11.87
2019-04-28T23:44:08.820Z,11.17
2019-04-28T23:46:43.058Z,12.60
2019-04-28T23:49:12.227Z,12.43
2019-04-28T23:51:44.447Z,11.27
2019-04-28T23:54:13.359Z,12.57
2019-04-28T23:56:42.217Z,11.23
2019-04-28T23:59:11.188Z,12.37
